createdAt,value
2023-01-29T04:03:22.285Z,-0.09
2023-01-29T04:06:35.111Z,-0.11
2023-01-29T04:09:51.991Z,-0.20
2023-01-29T04:13:06.832Z,-0.37
2023-01-29T04:16:20.441Z,-0.37
2023-01-29T04:19:40.758Z,-0.32
2023-01-29T04:22:53.002Z,-0.30
2023-01-29T04:26:21.590Z,-0.39
2023-01-29T04:29:41.451Z,-0.43
2023-01-29T04:33:04.024Z,-0.44
2023-01-29T04:36:27.900Z,-0.41
2023-01-29T04:39:45.931Z,-0.41
2023-01-29T04:43:05.032Z,-0.37
2023-01-29T04:46:18.379Z,-0.31
2023-01-29T04:49:36.338Z,-0.37
2023-01-29T04:52:52.147Z,-0.40
2023-01-29T04:56:10.600Z,-0.44
2023-01-29T04:59:26.234Z,-0.38
2023-01-29T05:02:39.192Z,-0.34
2023-01-29T05:05:51.621Z,-0.36
2023-01-29T05:09:04.107Z,-0.33
2023-01-29T05:12:16.827Z,-0.24
2023-01-29T05:15:31.326Z,-0.16
2023-01-29T05:18:41.076Z,-0.13
2023-01-29T05:21:51.486Z,-0.11
2023-01-29T05:25:02.361Z,-0.13
2023-01-29T05:28:16.360Z,-0.12
2023-01-29T05:31:26.027Z,-0.16
2023-01-29T05:34:35.771Z,-0.24
2023-01-29T05:37:45.576Z,-0.35
2023-01-29T05:40:59.734Z,-0.39
2023-01-29T05:44:10.614Z,-0.33
2023-01-29T05:47:20.666Z,-0.30
2023-01-29T05:50:30.259Z,-0.30
2023-01-29T05:53:39.821Z,-0.32
2023-01-29T05:56:50.749Z,-0.26
2023-01-29T06:00:00.270Z,-0.35
2023-01-29T08:14:39.907Z,-0.58
2023-01-29T08:17:57.722Z,-0.63
2023-01-29T08:21:07.812Z,-0.71
2023-01-29T08:24:17.589Z,-0.75
2023-01-29T08:27:27.503Z,-0.93
2023-01-29T08:30:38.433Z,-1.03
2023-01-29T08:33:48.302Z,-0.96
2023-01-29T08:36:58.044Z,-1.04
2023-01-29T08:40:09.374Z,-0.89
2023-01-29T08:43:18.939Z,-0.75
2023-01-29T08:46:29.930Z,-0.75
2023-01-29T08:49:39.574Z,-0.85
2023-01-29T08:52:49.135Z,-0.90
2023-01-29T08:55:58.841Z,-1.07
2023-01-29T08:59:08.360Z,-1.01
2023-01-29T09:02:19.214Z,-0.80
2023-01-29T09:05:29.746Z,-0.70
2023-01-29T09:08:40.001Z,-0.35
2023-01-29T09:11:49.616Z,-0.20
2023-01-29T09:14:59.215Z,-0.09
2023-01-29T09:18:10.245Z,0.28
2023-01-29T09:21:19.835Z,0.55
2023-01-29T09:24:29.842Z,0.80
2023-01-29T09:27:39.535Z,0.72
2023-01-29T09:30:49.327Z,0.63
2023-01-29T09:34:00.257Z,0.66
2023-01-29T09:37:09.855Z,0.70
2023-01-29T09:40:33.962Z,0.55
2023-01-29T09:43:49.973Z,0.53
2023-01-29T09:47:05.980Z,0.43
2023-01-29T09:50:22.712Z,0.45
2023-01-29T09:53:40.173Z,0.45
2023-01-29T09:56:53.598Z,0.41
2023-01-29T10:00:03.184Z,0.53
2023-01-29T10:03:35.775Z,0.70
2023-01-29T10:07:02.352Z,0.71
2023-01-29T10:10:26.754Z,0.78
2023-01-29T10:13:53.038Z,0.93
2023-01-29T10:17:17.981Z,0.99
2023-01-29T10:20:48.987Z,0.91
2023-01-29T10:24:13.525Z,0.78
2023-01-29T10:27:24.019Z,0.91
2023-01-29T10:30:37.693Z,1.00
2023-01-29T10:34:01.579Z,1.07
2023-01-29T10:37:18.419Z,1.15
2023-01-29T10:40:38.907Z,1.41
2023-01-29T10:43:59.868Z,1.47
2023-01-29T10:47:30.378Z,1.55
2023-01-29T10:50:52.348Z,1.79
2023-01-29T10:54:18.106Z,1.78
2023-01-29T10:57:41.796Z,1.30
2023-01-29T11:00:52.425Z,1.04
2023-01-29T11:04:04.036Z,1.28
2023-01-29T11:07:16.616Z,1.58
2023-01-29T11:10:26.898Z,1.88
2023-01-29T11:13:43.547Z,2.07
2023-01-29T11:16:53.452Z,1.97
2023-01-29T11:20:03.627Z,1.94
2023-01-29T11:23:28.384Z,2.01
2023-01-29T11:26:41.413Z,2.13
2023-01-29T11:29:53.873Z,2.21
2023-01-29T11:33:11.086Z,2.21
2023-01-29T11:36:28.568Z,2.27
2023-01-29T11:39:44.881Z,2.19
2023-01-29T11:42:54.606Z,2.20
2023-01-29T11:46:08.022Z,1.88
2023-01-29T11:49:29.311Z,1.86
2023-01-29T11:52:42.039Z,1.84
2023-01-29T11:55:52.546Z,2.05
2023-01-29T11:59:04.460Z,2.08
2023-01-29T12:02:22.676Z,2.29
2023-01-29T12:05:32.368Z,2.48
2023-01-29T12:08:42.091Z,2.54
2023-01-29T12:11:52.540Z,2.47
2023-01-29T12:15:06.515Z,2.44
2023-01-29T12:18:26.825Z,2.20
2023-01-29T12:21:47.031Z,2.11
2023-01-29T12:25:02.827Z,1.95
2023-01-29T12:28:24.751Z,1.80
2023-01-29T12:32:06.811Z,1.77
2023-01-29T12:35:22.566Z,1.86
2023-01-29T12:38:32.168Z,1.94
2023-01-29T12:41:46.266Z,2.00
2023-01-29T12:45:00.189Z,2.08
2023-01-29T12:53:42.817Z,2.24
2023-01-29T12:57:09.574Z,2.23
2023-01-29T13:00:23.460Z,2.23
2023-01-29T13:03:43.217Z,2.22
2023-01-29T13:06:56.263Z,2.17
2023-01-29T13:10:12.759Z,2.09
2023-01-29T13:13:31.334Z,2.02
2023-01-29T13:16:46.538Z,1.97
2023-01-29T13:19:59.188Z,1.87
2023-01-29T13:23:17.814Z,1.94
2023-01-29T13:26:28.156Z,2.02
2023-01-29T13:29:39.079Z,1.95
2023-01-29T13:32:53.184Z,1.99
2023-01-29T13:36:03.380Z,2.06
2023-01-29T13:39:23.835Z,2.00
2023-01-29T13:42:41.292Z,1.88
2023-01-29T13:45:54.377Z,1.74
2023-01-29T13:49:05.058Z,1.75
2023-01-29T13:52:18.427Z,1.76
2023-01-29T13:55:32.176Z,1.81
2023-01-29T13:58:54.446Z,1.90
2023-01-29T14:02:21.168Z,1.95
2023-01-29T14:05:40.127Z,1.96
2023-01-29T14:08:49.802Z,2.03
2023-01-29T14:11:59.676Z,1.87
2023-01-29T14:15:21.340Z,1.88
2023-01-29T14:18:35.338Z,1.72
2023-01-29T14:21:51.228Z,1.56
2023-01-29T14:25:04.440Z,1.42
2023-01-29T14:28:20.314Z,1.25
2023-01-29T14:31:40.977Z,1.25
2023-01-29T14:34:56.124Z,1.19
2023-01-29T14:38:07.817Z,1.32
2023-01-29T14:41:27.674Z,1.35
2023-01-29T14:44:49.275Z,1.45
2023-01-29T14:48:02.376Z,1.31
2023-01-29T14:51:16.056Z,1.33
2023-01-29T14:54:30.516Z,1.44
2023-01-29T14:57:40.271Z,1.38
2023-01-29T15:00:54.533Z,1.44
2023-01-29T15:04:07.471Z,1.24
2023-01-29T15:07:29.007Z,1.09
2023-01-29T15:10:41.259Z,0.91
2023-01-29T15:13:57.698Z,0.95
2023-01-29T15:17:19.409Z,0.76
2023-01-29T15:20:32.321Z,0.90
2023-01-29T15:23:44.337Z,0.74
2023-01-29T15:26:55.128Z,0.72
2023-01-29T15:30:08.464Z,0.70
2023-01-29T15:33:18.092Z,0.73
2023-01-29T15:36:30.616Z,0.65
2023-01-29T15:39:44.979Z,0.62
2023-01-29T15:42:54.749Z,0.62
2023-01-29T15:46:11.551Z,0.67
2023-01-29T15:49:30.327Z,0.76
2023-01-29T15:52:40.463Z,0.66
2023-01-29T15:55:51.824Z,0.75
2023-01-29T15:59:09.658Z,0.74
2023-01-29T16:02:22.565Z,0.69
2023-01-29T16:05:33.774Z,0.61
2023-01-29T16:08:47.734Z,0.49
2023-01-29T16:11:59.714Z,0.48
2023-01-29T16:15:22.895Z,0.42
2023-01-29T16:18:36.387Z,0.39
2023-01-29T16:21:47.005Z,0.33
2023-01-29T16:24:57.448Z,0.27
2023-01-29T16:28:10.962Z,0.19
2023-01-29T16:31:24.725Z,0.12
2023-01-29T16:34:37.615Z,0.01
2023-01-29T16:37:49.379Z,-0.06
2023-01-29T16:41:08.970Z,-0.09
2023-01-29T16:44:36.034Z,-0.15
2023-01-29T16:47:46.052Z,-0.23
2023-01-29T16:51:05.260Z,-0.35
2023-01-29T16:54:18.257Z,-0.41
2023-01-29T16:57:31.921Z,-0.40
2023-01-29T17:00:46.802Z,-0.42
2023-01-29T17:04:01.799Z,-0.49
2023-01-29T17:07:17.283Z,-0.51
2023-01-29T17:10:29.862Z,-0.57
2023-01-29T17:13:42.722Z,-0.68
2023-01-29T17:16:56.001Z,-0.70
2023-01-29T17:20:14.881Z,-0.70
2023-01-29T17:23:24.924Z,-0.72
2023-01-29T17:26:34.674Z,-0.79
2023-01-29T17:29:44.379Z,-0.81
2023-01-29T17:32:55.335Z,-0.88
2023-01-29T17:36:05.151Z,-0.89
2023-01-29T17:39:19.354Z,-0.91
2023-01-29T17:42:29.471Z,-0.93
2023-01-29T17:45:39.917Z,-1.03
2023-01-29T17:48:51.150Z,-1.08
2023-01-29T17:52:01.122Z,-1.20
2023-01-29T17:55:11.673Z,-1.18
2023-01-29T17:58:23.786Z,-1.11
2023-01-29T18:01:33.381Z,-1.09
2023-01-29T18:04:44.311Z,-1.04
2023-01-29T18:07:54.725Z,-1.14
2023-01-29T18:11:04.647Z,-1.10
2023-01-29T18:14:14.800Z,-0.97
2023-01-29T18:17:24.576Z,-0.99
2023-01-29T18:20:38.397Z,-1.08
2023-01-29T18:23:48.193Z,-1.06
2023-01-29T18:26:57.995Z,-1.15
2023-01-29T18:30:09.032Z,-1.09
2023-01-29T18:33:18.968Z,-0.97
2023-01-29T18:36:32.409Z,-0.91
2023-01-29T18:39:42.014Z,-0.88
2023-01-29T18:42:51.879Z,-0.85
2023-01-29T18:46:01.494Z,-0.89
2023-01-29T18:49:11.803Z,-0.84
2023-01-29T18:52:22.935Z,-0.90
2023-01-29T18:55:32.647Z,-0.84
2023-01-29T18:58:45.915Z,-0.82
2023-01-29T19:02:02.677Z,-0.86
2023-01-29T19:05:12.637Z,-0.86
2023-01-29T19:08:23.705Z,-0.89
2023-01-29T19:11:33.273Z,-0.84
2023-01-29T19:14:43.189Z,-0.76
2023-01-29T19:17:52.935Z,-0.76
2023-01-29T19:21:10.400Z,-0.92
2023-01-29T19:24:21.444Z,-0.88
2023-01-29T19:27:31.401Z,-0.82
2023-01-29T19:30:41.193Z,-0.80
2023-01-29T19:33:50.833Z,-0.89
2023-01-29T19:37:00.758Z,-0.91
2023-01-29T19:40:12.417Z,-0.91
2023-01-29T19:43:22.103Z,-0.91
2023-01-29T19:46:31.916Z,-0.85
2023-01-29T19:49:41.601Z,-0.91
2023-01-29T19:52:52.678Z,-0.86
2023-01-29T19:56:05.723Z,-0.80
2023-01-29T19:59:15.477Z,-0.93
2023-01-29T20:02:25.702Z,-0.94
2023-01-29T20:05:37.499Z,-1.06
2023-01-29T20:08:47.367Z,-1.02
2023-01-29T20:11:58.460Z,-0.92
2023-01-29T20:15:08.673Z,-0.90
2023-01-29T20:18:18.958Z,-0.98
2023-01-29T20:21:28.671Z,-0.88
2023-01-29T20:24:42.093Z,-0.91
2023-01-29T20:27:52.937Z,-0.96
2023-01-29T20:31:03.089Z,-0.97
2023-01-29T20:34:13.127Z,-0.96
2023-01-29T20:37:22.812Z,-1.00
2023-01-29T20:40:32.481Z,-0.98
2023-01-29T20:43:44.170Z,-0.82
2023-01-29T20:46:53.798Z,-0.78
2023-01-29T20:50:08.458Z,-0.75
2023-01-29T20:53:18.427Z,-0.68
2023-01-29T20:56:36.966Z,-0.58
2023-01-29T20:59:52.691Z,-0.53
2023-01-29T21:03:02.530Z,-0.50
2023-01-29T21:06:12.467Z,-0.42
2023-01-29T21:09:22.250Z,-0.42
2023-01-29T21:12:31.840Z,-0.55
2023-01-29T21:15:44.481Z,-0.53
